sensor_id;sensor_type;location;lat;lon;timestamp;P1;durP1;ratioP1;P2;durP2;ratioP2
18899;SDS011;9582;52.018;6.306;2024-03-25T00:01:22;11.87;;;3.00;;
18899;SDS011;9582;52.018;6.306;2024-03-25T00:03:49;12.87;;;3.00;;
18899;SDS011;9582;52.018;6.306;2024-03-25T00:06:16;10.50;;;2.47;;
18899;SDS011;9582;52.018;6.306;2024-03-25T00:08:41;10.20;;;2.53;;
18899;SDS011;9582;52.018;6.306;2024-03-25T00:11:08;9.53;;;3.10;;
18899;SDS011;9582;52.018;6.306;2024-03-25T00:13:34;7.00;;;2.57;;
18899;SDS011;9582;52.018;6.306;2024-03-25T00:16:00;12.90;;;2.90;;
18899;SDS011;9582;52.018;6.306;2024-03-25T00:18:26;16.97;;;3.90;;
18899;SDS011;9582;52.018;6.306;2024-03-25T00:20:54;10.70;;;3.83;;
18899;SDS011;9582;52.018;6.306;2024-03-25T00:23:19;9.57;;;3.97;;
18899;SDS011;9582;52.018;6.306;2024-03-25T00:25:46;13.50;;;4.33;;
18899;SDS011;9582;52.018;6.306;2024-03-25T00:28:12;17.30;;;4.60;;
18899;SDS011;9582;52.018;6.306;2024-03-25T00:30:38;16.17;;;3.93;;
18899;SDS011;9582;52.018;6.306;2024-03-25T00:33:04;15.47;;;3.97;;
18899;SDS011;9582;52.018;6.306;2024-03-25T00:35:31;16.83;;;4.80;;
18899;SDS011;9582;52.018;6.306;2024-03-25T00:37:59;19.20;;;4.03;;
18899;SDS011;9582;52.018;6.306;2024-03-25T00:40:25;16.10;;;4.30;;
18899;SDS011;9582;52.018;6.306;2024-03-25T00:42:51;14.00;;;4.80;;
18899;SDS011;9582;52.018;6.306;2024-03-25T00:45:18;18.40;;;3.50;;
18899;SDS011;9582;52.018;6.306;2024-03-25T00:47:43;17.43;;;4.37;;
18899;SDS011;9582;52.018;6.306;2024-03-25T00:50:10;15.43;;;3.83;;
18899;SDS011;9582;52.018;6.306;2024-03-25T00:52:36;15.37;;;3.90;;
18899;SDS011;9582;52.018;6.306;2024-03-25T00:55:04;14.63;;;4.20;;
18899;SDS011;9582;52.018;6.306;2024-03-25T00:57:30;17.20;;;4.40;;
18899;SDS011;9582;52.018;6.306;2024-03-25T00:59:57;16.37;;;4.30;;
18899;SDS011;9582;52.018;6.306;2024-03-25T01:02:23;16.03;;;3.70;;
18899;SDS011;9582;52.018;6.306;2024-03-25T01:04:52;18.87;;;4.20;;
18899;SDS011;9582;52.018;6.306;2024-03-25T01:07:19;17.20;;;4.33;;
18899;SDS011;9582;52.018;6.306;2024-03-25T01:09:45;16.00;;;3.60;;
18899;SDS011;9582;52.018;6.306;2024-03-25T01:12:13;9.83;;;3.53;;
18899;SDS011;9582;52.018;6.306;2024-03-25T01:14:38;17.40;;;3.77;;
18899;SDS011;9582;52.018;6.306;2024-03-25T01:17:05;11.73;;;3.87;;
18899;SDS011;9582;52.018;6.306;2024-03-25T01:19:31;16.33;;;3.57;;
18899;SDS011;9582;52.018;6.306;2024-03-25T01:21:57;17.87;;;3.83;;
18899;SDS011;9582;52.018;6.306;2024-03-25T01:24:23;19.40;;;4.80;;
18899;SDS011;9582;52.018;6.306;2024-03-25T01:26:50;15.33;;;4.10;;
18899;SDS011;9582;52.018;6.306;2024-03-25T01:29:17;15.57;;;3.73;;
18899;SDS011;9582;52.018;6.306;2024-03-25T01:31:44;18.77;;;3.90;;
18899;SDS011;9582;52.018;6.306;2024-03-25T01:34:10;14.40;;;3.50;;
18899;SDS011;9582;52.018;6.306;2024-03-25T01:36:37;13.80;;;3.50;;
18899;SDS011;9582;52.018;6.306;2024-03-25T01:39:02;21.17;;;3.73;;
18899;SDS011;9582;52.018;6.306;2024-03-25T01:41:30;15.87;;;3.50;;
18899;SDS011;9582;52.018;6.306;2024-03-25T01:43:56;13.23;;;2.87;;
18899;SDS011;9582;52.018;6.306;2024-03-25T01:46:24;13.97;;;3.83;;
18899;SDS011;9582;52.018;6.306;2024-03-25T01:48:51;21.63;;;4.00;;
18899;SDS011;9582;52.018;6.306;2024-03-25T01:51:18;16.33;;;3.67;;
18899;SDS011;9582;52.018;6.306;2024-03-25T01:53:48;18.23;;;4.20;;
18899;SDS011;9582;52.018;6.306;2024-03-25T01:56:15;16.43;;;4.47;;
18899;SDS011;9582;52.018;6.306;2024-03-25T01:58:43;14.50;;;4.13;;
18899;SDS011;9582;52.018;6.306;2024-03-25T02:01:08;13.73;;;3.03;;
18899;SDS011;9582;52.018;6.306;2024-03-25T02:03:40;17.13;;;3.93;;
18899;SDS011;9582;52.018;6.306;2024-03-25T02:06:07;14.03;;;3.57;;
18899;SDS011;9582;52.018;6.306;2024-03-25T02:08:37;15.13;;;3.10;;
18899;SDS011;9582;52.018;6.306;2024-03-25T02:11:04;14.87;;;2.93;;
18899;SDS011;9582;52.018;6.306;2024-03-25T02:13:31;28.93;;;3.93;;
18899;SDS011;9582;52.018;6.306;2024-03-25T02:15:57;14.27;;;3.20;;
18899;SDS011;9582;52.018;6.306;2024-03-25T02:18:24;12.20;;;3.17;;
18899;SDS011;9582;52.018;6.306;2024-03-25T02:20:51;16.63;;;3.67;;
18899;SDS011;9582;52.018;6.306;2024-03-25T02:23:17;16.10;;;3.60;;
18899;SDS011;9582;52.018;6.306;2024-03-25T02:25:48;14.17;;;3.20;;
18899;SDS011;9582;52.018;6.306;2024-03-25T02:28:15;20.93;;;4.00;;
18899;SDS011;9582;52.018;6.306;2024-03-25T02:30:41;13.17;;;3.20;;
18899;SDS011;9582;52.018;6.306;2024-03-25T02:33:08;12.33;;;3.03;;
18899;SDS011;9582;52.018;6.306;2024-03-25T02:35:34;19.13;;;3.50;;
18899;SDS011;9582;52.018;6.306;2024-03-25T02:38:01;12.27;;;3.30;;
18899;SDS011;9582;52.018;6.306;2024-03-25T02:40:28;14.50;;;3.37;;
18899;SDS011;9582;52.018;6.306;2024-03-25T02:42:56;19.23;;;3.30;;
18899;SDS011;9582;52.018;6.306;2024-03-25T02:45:22;16.53;;;3.67;;
18899;SDS011;9582;52.018;6.306;2024-03-25T02:47:49;26.23;;;4.30;;
18899;SDS011;9582;52.018;6.306;2024-03-25T02:50:15;12.83;;;3.63;;
18899;SDS011;9582;52.018;6.306;2024-03-25T02:52:42;15.83;;;3.93;;
18899;SDS011;9582;52.018;6.306;2024-03-25T02:55:08;16.40;;;3.30;;
18899;SDS011;9582;52.018;6.306;2024-03-25T02:57:35;13.27;;;3.50;;
18899;SDS011;9582;52.018;6.306;2024-03-25T03:00:02;15.97;;;3.60;;
18899;SDS011;9582;52.018;6.306;2024-03-25T03:02:29;15.13;;;3.30;;
18899;SDS011;9582;52.018;6.306;2024-03-25T03:04:55;19.07;;;3.53;;
18899;SDS011;9582;52.018;6.306;2024-03-25T03:07:22;15.03;;;3.57;;
18899;SDS011;9582;52.018;6.306;2024-03-25T03:09:47;14.67;;;3.77;;
18899;SDS011;9582;52.018;6.306;2024-03-25T03:12:14;12.77;;;3.10;;
18899;SDS011;9582;52.018;6.306;2024-03-25T03:14:40;13.83;;;3.60;;
18899;SDS011;9582;52.018;6.306;2024-03-25T03:17:08;15.43;;;4.27;;
18899;SDS011;9582;52.018;6.306;2024-03-25T03:19:34;16.90;;;3.57;;
18899;SDS011;9582;52.018;6.306;2024-03-25T03:22:01;23.10;;;5.00;;
18899;SDS011;9582;52.018;6.306;2024-03-25T03:24:27;15.50;;;4.23;;
18899;SDS011;9582;52.018;6.306;2024-03-25T03:26:54;14.77;;;4.07;;
18899;SDS011;9582;52.018;6.306;2024-03-25T03:29:19;12.03;;;4.03;;
18899;SDS011;9582;52.018;6.306;2024-03-25T03:31:46;15.80;;;4.20;;
18899;SDS011;9582;52.018;6.306;2024-03-25T03:34:13;27.53;;;4.87;;
18899;SDS011;9582;52.018;6.306;2024-03-25T03:36:39;19.77;;;4.43;;
18899;SDS011;9582;52.018;6.306;2024-03-25T03:39:05;19.33;;;3.83;;
18899;SDS011;9582;52.018;6.306;2024-03-25T03:41:34;14.10;;;3.70;;
18899;SDS011;9582;52.018;6.306;2024-03-25T03:43:59;16.33;;;4.47;;
18899;SDS011;9582;52.018;6.306;2024-03-25T03:46:26;20.67;;;5.37;;
18899;SDS011;9582;52.018;6.306;2024-03-25T03:48:52;19.93;;;5.40;;
18899;SDS011;9582;52.018;6.306;2024-03-25T03:51:20;21.60;;;4.30;;
18899;SDS011;9582;52.018;6.306;2024-03-25T03:53:45;18.87;;;4.53;;
18899;SDS011;9582;52.018;6.306;2024-03-25T03:56:12;19.83;;;5.03;;
18899;SDS011;9582;52.018;6.306;2024-03-25T03:58:37;14.67;;;4.63;;
18899;SDS011;9582;52.018;6.306;2024-03-25T04:01:04;19.93;;;4.87;;
18899;SDS011;9582;52.018;6.306;2024-03-25T04:03:30;20.97;;;5.10;;
18899;SDS011;9582;52.018;6.306;2024-03-25T04:05:57;17.40;;;4.57;;
18899;SDS011;9582;52.018;6.306;2024-03-25T04:08:24;25.17;;;4.50;;
18899;SDS011;9582;52.018;6.306;2024-03-25T04:10:50;19.40;;;4.50;;
18899;SDS011;9582;52.018;6.306;2024-03-25T04:13:16;19.97;;;4.60;;
18899;SDS011;9582;52.018;6.306;2024-03-25T04:15:42;23.93;;;6.20;;
18899;SDS011;9582;52.018;6.306;2024-03-25T04:18:08;19.00;;;5.10;;
18899;SDS011;9582;52.018;6.306;2024-03-25T04:20:36;23.37;;;4.37;;
18899;SDS011;9582;52.018;6.306;2024-03-25T04:23:02;23.30;;;4.80;;
18899;SDS011;9582;52.018;6.306;2024-03-25T04:25:30;23.07;;;4.73;;
18899;SDS011;9582;52.018;6.306;2024-03-25T04:27:56;19.37;;;5.00;;
18899;SDS011;9582;52.018;6.306;2024-03-25T04:30:23;18.70;;;4.17;;
18899;SDS011;9582;52.018;6.306;2024-03-25T04:32:48;17.43;;;4.23;;
18899;SDS011;9582;52.018;6.306;2024-03-25T04:35:15;18.83;;;4.90;;
18899;SDS011;9582;52.018;6.306;2024-03-25T04:37:41;16.93;;;4.70;;
18899;SDS011;9582;52.018;6.306;2024-03-25T04:40:07;20.03;;;4.67;;
18899;SDS011;9582;52.018;6.306;2024-03-25T04:42:35;19.83;;;5.20;;
18899;SDS011;9582;52.018;6.306;2024-03-25T04:45:00;16.90;;;5.13;;
18899;SDS011;9582;52.018;6.306;2024-03-25T04:47:26;22.50;;;5.60;;
18899;SDS011;9582;52.018;6.306;2024-03-25T04:49:52;21.77;;;4.37;;
18899;SDS011;9582;52.018;6.306;2024-03-25T04:52:17;17.80;;;3.83;;
18899;SDS011;9582;52.018;6.306;2024-03-25T04:54:43;12.73;;;3.70;;
18899;SDS011;9582;52.018;6.306;2024-03-25T04:57:09;16.33;;;4.17;;
18899;SDS011;9582;52.018;6.306;2024-03-25T04:59:36;18.63;;;4.23;;
18899;SDS011;9582;52.018;6.306;2024-03-25T05:02:02;21.53;;;4.73;;
18899;SDS011;9582;52.018;6.306;2024-03-25T05:04:27;23.20;;;5.60;;
18899;SDS011;9582;52.018;6.306;2024-03-25T05:06:53;20.43;;;5.80;;
18899;SDS011;9582;52.018;6.306;2024-03-25T05:09:19;19.20;;;5.47;;
18899;SDS011;9582;52.018;6.306;2024-03-25T05:11:45;22.87;;;5.93;;
18899;SDS011;9582;52.018;6.306;2024-03-25T05:14:11;20.77;;;6.30;;
18899;SDS011;9582;52.018;6.306;2024-03-25T05:16:38;24.87;;;6.37;;
18899;SDS011;9582;52.018;6.306;2024-03-25T05:19:03;23.60;;;6.27;;
18899;SDS011;9582;52.018;6.306;2024-03-25T05:21:29;27.47;;;6.83;;
18899;SDS011;9582;52.018;6.306;2024-03-25T05:23:55;21.80;;;6.33;;
18899;SDS011;9582;52.018;6.306;2024-03-25T05:26:21;23.20;;;6.20;;
18899;SDS011;9582;52.018;6.306;2024-03-25T05:28:46;21.67;;;5.90;;
18899;SDS011;9582;52.018;6.306;2024-03-25T05:31:18;24.87;;;6.63;;
18899;SDS011;9582;52.018;6.306;2024-03-25T05:33:45;32.80;;;7.27;;
18899;SDS011;9582;52.018;6.306;2024-03-25T05:36:12;25.33;;;5.87;;
18899;SDS011;9582;52.018;6.306;2024-03-25T05:38:38;19.53;;;6.23;;
18899;SDS011;9582;52.018;6.306;2024-03-25T05:41:03;24.57;;;7.13;;
18899;SDS011;9582;52.018;6.306;2024-03-25T05:43:29;25.57;;;7.20;;
18899;SDS011;9582;52.018;6.306;2024-03-25T05:45:55;23.73;;;7.30;;
18899;SDS011;9582;52.018;6.306;2024-03-25T05:48:22;25.97;;;6.77;;
18899;SDS011;9582;52.018;6.306;2024-03-25T05:50:57;19.57;;;6.10;;
18899;SDS011;9582;52.018;6.306;2024-03-25T05:53:26;18.80;;;6.00;;
18899;SDS011;9582;52.018;6.306;2024-03-25T05:55:52;21.43;;;6.53;;
18899;SDS011;9582;52.018;6.306;2024-03-25T05:58:18;19.93;;;6.00;;
18899;SDS011;9582;52.018;6.306;2024-03-25T06:00:46;21.30;;;6.70;;
18899;SDS011;9582;52.018;6.306;2024-03-25T06:03:12;23.90;;;6.70;;
18899;SDS011;9582;52.018;6.306;2024-03-25T06:05:38;24.50;;;6.50;;
18899;SDS011;9582;52.018;6.306;2024-03-25T06:08:05;24.57;;;7.30;;
18899;SDS011;9582;52.018;6.306;2024-03-25T06:10:34;25.27;;;6.80;;
18899;SDS011;9582;52.018;6.306;2024-03-25T06:13:01;22.17;;;6.53;;
18899;SDS011;9582;52.018;6.306;2024-03-25T06:15:27;27.63;;;7.27;;
18899;SDS011;9582;52.018;6.306;2024-03-25T06:17:53;20.53;;;6.33;;
18899;SDS011;9582;52.018;6.306;2024-03-25T06:20:19;23.57;;;6.63;;
18899;SDS011;9582;52.018;6.306;2024-03-25T06:22:45;27.20;;;7.37;;
18899;SDS011;9582;52.018;6.306;2024-03-25T06:25:12;21.50;;;6.83;;
18899;SDS011;9582;52.018;6.306;2024-03-25T06:27:37;18.77;;;6.63;;
18899;SDS011;9582;52.018;6.306;2024-03-25T06:30:03;24.27;;;6.33;;
18899;SDS011;9582;52.018;6.306;2024-03-25T06:32:44;19.43;;;6.97;;
18899;SDS011;9582;52.018;6.306;2024-03-25T06:35:28;23.33;;;6.07;;
18899;SDS011;9582;52.018;6.306;2024-03-25T06:37:54;23.57;;;7.00;;
18899;SDS011;9582;52.018;6.306;2024-03-25T06:40:21;23.20;;;6.57;;
18899;SDS011;9582;52.018;6.306;2024-03-25T06:42:47;20.67;;;7.13;;
18899;SDS011;9582;52.018;6.306;2024-03-25T06:45:12;19.07;;;7.63;;
18899;SDS011;9582;52.018;6.306;2024-03-25T06:47:38;19.13;;;7.03;;
18899;SDS011;9582;52.018;6.306;2024-03-25T06:50:04;20.70;;;8.00;;
18899;SDS011;9582;52.018;6.306;2024-03-25T06:52:31;26.80;;;6.83;;
18899;SDS011;9582;52.018;6.306;2024-03-25T06:54:56;16.83;;;6.17;;
18899;SDS011;9582;52.018;6.306;2024-03-25T06:57:24;14.83;;;5.77;;
18899;SDS011;9582;52.018;6.306;2024-03-25T06:59:50;20.97;;;5.87;;
18899;SDS011;9582;52.018;6.306;2024-03-25T07:02:15;18.27;;;5.80;;
18899;SDS011;9582;52.018;6.306;2024-03-25T07:04:41;24.03;;;6.53;;
18899;SDS011;9582;52.018;6.306;2024-03-25T07:07:07;17.50;;;5.33;;
18899;SDS011;9582;52.018;6.306;2024-03-25T07:09:33;17.97;;;5.70;;
18899;SDS011;9582;52.018;6.306;2024-03-25T07:11:58;16.70;;;5.17;;
18899;SDS011;9582;52.018;6.306;2024-03-25T07:14:26;21.80;;;5.83;;
18899;SDS011;9582;52.018;6.306;2024-03-25T07:16:52;15.93;;;5.20;;
18899;SDS011;9582;52.018;6.306;2024-03-25T07:19:17;15.23;;;5.47;;
18899;SDS011;9582;52.018;6.306;2024-03-25T07:21:43;16.50;;;5.30;;
18899;SDS011;9582;52.018;6.306;2024-03-25T07:24:09;15.70;;;6.23;;
18899;SDS011;9582;52.018;6.306;2024-03-25T07:26:34;13.53;;;5.03;;
18899;SDS011;9582;52.018;6.306;2024-03-25T07:29:00;22.43;;;5.97;;
18899;SDS011;9582;52.018;6.306;2024-03-25T07:31:27;15.37;;;5.40;;
18899;SDS011;9582;52.018;6.306;2024-03-25T07:33:53;15.73;;;5.33;;
18899;SDS011;9582;52.018;6.306;2024-03-25T07:36:18;14.83;;;5.23;;
18899;SDS011;9582;52.018;6.306;2024-03-25T07:38:44;14.73;;;4.80;;
18899;SDS011;9582;52.018;6.306;2024-03-25T07:41:10;17.93;;;5.30;;
18899;SDS011;9582;52.018;6.306;2024-03-25T07:43:35;18.50;;;5.73;;
18899;SDS011;9582;52.018;6.306;2024-03-25T07:46:01;14.20;;;4.73;;
18899;SDS011;9582;52.018;6.306;2024-03-25T07:48:28;18.30;;;5.73;;
18899;SDS011;9582;52.018;6.306;2024-03-25T07:50:54;19.60;;;5.20;;
18899;SDS011;9582;52.018;6.306;2024-03-25T07:53:20;18.17;;;5.53;;
18899;SDS011;9582;52.018;6.306;2024-03-25T07:55:45;16.90;;;5.50;;
18899;SDS011;9582;52.018;6.306;2024-03-25T07:58:11;20.27;;;4.87;;
18899;SDS011;9582;52.018;6.306;2024-03-25T08:00:37;12.90;;;4.83;;
18899;SDS011;9582;52.018;6.306;2024-03-25T08:03:03;18.33;;;5.07;;
18899;SDS011;9582;52.018;6.306;2024-03-25T08:05:30;13.47;;;4.57;;
18899;SDS011;9582;52.018;6.306;2024-03-25T08:07:56;16.27;;;4.70;;
18899;SDS011;9582;52.018;6.306;2024-03-25T08:10:22;15.83;;;5.00;;
18899;SDS011;9582;52.018;6.306;2024-03-25T08:12:47;19.90;;;5.57;;
18899;SDS011;9582;52.018;6.306;2024-03-25T08:15:13;11.80;;;4.10;;
18899;SDS011;9582;52.018;6.306;2024-03-25T08:17:39;19.67;;;5.13;;
18899;SDS011;9582;52.018;6.306;2024-03-25T08:20:05;17.43;;;4.73;;
18899;SDS011;9582;52.018;6.306;2024-03-25T08:22:33;16.90;;;5.57;;
18899;SDS011;9582;52.018;6.306;2024-03-25T08:24:58;14.30;;;4.83;;
18899;SDS011;9582;52.018;6.306;2024-03-25T08:27:24;15.27;;;4.90;;
18899;SDS011;9582;52.018;6.306;2024-03-25T08:29:50;13.40;;;5.03;;
18899;SDS011;9582;52.018;6.306;2024-03-25T08:32:16;16.40;;;4.70;;
18899;SDS011;9582;52.018;6.306;2024-03-25T08:34:41;15.33;;;4.47;;
18899;SDS011;9582;52.018;6.306;2024-03-25T08:37:07;11.83;;;4.30;;
18899;SDS011;9582;52.018;6.306;2024-03-25T08:39:34;11.93;;;3.90;;
18899;SDS011;9582;52.018;6.306;2024-03-25T08:42:00;17.67;;;4.53;;
18899;SDS011;9582;52.018;6.306;2024-03-25T08:44:26;12.17;;;3.97;;
18899;SDS011;9582;52.018;6.306;2024-03-25T08:46:52;15.97;;;4.37;;
18899;SDS011;9582;52.018;6.306;2024-03-25T08:49:17;16.30;;;4.13;;
18899;SDS011;9582;52.018;6.306;2024-03-25T08:51:43;15.97;;;4.43;;
18899;SDS011;9582;52.018;6.306;2024-03-25T08:54:09;15.07;;;4.60;;
18899;SDS011;9582;52.018;6.306;2024-03-25T08:56:36;12.60;;;3.37;;
18899;SDS011;9582;52.018;6.306;2024-03-25T08:59:01;10.63;;;3.27;;
18899;SDS011;9582;52.018;6.306;2024-03-25T09:01:27;12.07;;;3.83;;
18899;SDS011;9582;52.018;6.306;2024-03-25T09:03:53;11.93;;;3.47;;
18899;SDS011;9582;52.018;6.306;2024-03-25T09:06:18;14.03;;;3.70;;
18899;SDS011;9582;52.018;6.306;2024-03-25T09:08:44;8.27;;;2.40;;
18899;SDS011;9582;52.018;6.306;2024-03-25T09:11:24;13.67;;;3.10;;
18899;SDS011;9582;52.018;6.306;2024-03-25T09:13:52;11.27;;;3.60;;
18899;SDS011;9582;52.018;6.306;2024-03-25T09:16:18;16.57;;;3.63;;
18899;SDS011;9582;52.018;6.306;2024-03-25T09:18:43;10.50;;;3.20;;
18899;SDS011;9582;52.018;6.306;2024-03-25T09:21:09;8.93;;;2.73;;
18899;SDS011;9582;52.018;6.306;2024-03-25T09:23:35;10.63;;;3.13;;
18899;SDS011;9582;52.018;6.306;2024-03-25T09:26:00;13.57;;;3.30;;
18899;SDS011;9582;52.018;6.306;2024-03-25T09:28:26;12.57;;;3.20;;
18899;SDS011;9582;52.018;6.306;2024-03-25T09:30:53;10.90;;;3.40;;
18899;SDS011;9582;52.018;6.306;2024-03-25T09:33:19;9.07;;;2.90;;
18899;SDS011;9582;52.018;6.306;2024-03-25T09:35:44;10.33;;;2.83;;
18899;SDS011;9582;52.018;6.306;2024-03-25T09:38:10;10.50;;;3.80;;
18899;SDS011;9582;52.018;6.306;2024-03-25T09:40:36;11.50;;;2.50;;
18899;SDS011;9582;52.018;6.306;2024-03-25T09:43:06;10.63;;;2.90;;
18899;SDS011;9582;52.018;6.306;2024-03-25T09:45:38;9.57;;;3.27;;
18899;SDS011;9582;52.018;6.306;2024-03-25T09:48:06;7.10;;;2.23;;
18899;SDS011;9582;52.018;6.306;2024-03-25T09:50:33;8.33;;;2.77;;
18899;SDS011;9582;52.018;6.306;2024-03-25T09:53:00;8.13;;;2.73;;
18899;SDS011;9582;52.018;6.306;2024-03-25T09:55:25;8.03;;;3.10;;
18899;SDS011;9582;52.018;6.306;2024-03-25T09:57:51;7.47;;;2.43;;
18899;SDS011;9582;52.018;6.306;2024-03-25T10:00:17;8.47;;;3.10;;
18899;SDS011;9582;52.018;6.306;2024-03-25T10:02:43;13.37;;;2.90;;
18899;SDS011;9582;52.018;6.306;2024-03-25T10:05:11;7.50;;;2.20;;
18899;SDS011;9582;52.018;6.306;2024-03-25T10:07:36;7.23;;;2.20;;
18899;SDS011;9582;52.018;6.306;2024-03-25T10:10:06;11.23;;;2.40;;
18899;SDS011;9582;52.018;6.306;2024-03-25T10:12:32;10.60;;;2.53;;
18899;SDS011;9582;52.018;6.306;2024-03-25T10:14:58;5.53;;;1.73;;
18899;SDS011;9582;52.018;6.306;2024-03-25T10:17:24;4.77;;;2.00;;
18899;SDS011;9582;52.018;6.306;2024-03-25T10:19:50;6.33;;;2.10;;
18899;SDS011;9582;52.018;6.306;2024-03-25T10:22:17;6.80;;;2.40;;
18899;SDS011;9582;52.018;6.306;2024-03-25T10:24:43;8.77;;;2.17;;
18899;SDS011;9582;52.018;6.306;2024-03-25T10:27:10;7.63;;;2.40;;
18899;SDS011;9582;52.018;6.306;2024-03-25T10:29:37;8.53;;;2.87;;
18899;SDS011;9582;52.018;6.306;2024-03-25T10:32:02;9.47;;;2.27;;
18899;SDS011;9582;52.018;6.306;2024-03-25T10:34:29;10.13;;;2.20;;
18899;SDS011;9582;52.018;6.306;2024-03-25T10:36:56;8.23;;;2.37;;
18899;SDS011;9582;52.018;6.306;2024-03-25T10:39:25;7.43;;;1.93;;
18899;SDS011;9582;52.018;6.306;2024-03-25T10:41:53;5.57;;;1.90;;
18899;SDS011;9582;52.018;6.306;2024-03-25T10:44:21;7.70;;;2.13;;
18899;SDS011;9582;52.018;6.306;2024-03-25T10:46:47;7.77;;;2.57;;
18899;SDS011;9582;52.018;6.306;2024-03-25T10:49:16;6.03;;;2.00;;
18899;SDS011;9582;52.018;6.306;2024-03-25T10:51:52;8.43;;;2.57;;
18899;SDS011;9582;52.018;6.306;2024-03-25T10:54:21;8.27;;;2.40;;
18899;SDS011;9582;52.018;6.306;2024-03-25T10:56:49;10.57;;;2.53;;
18899;SDS011;9582;52.018;6.306;2024-03-25T10:59:15;6.10;;;1.93;;
18899;SDS011;9582;52.018;6.306;2024-03-25T11:01:42;8.37;;;2.30;;
18899;SDS011;9582;52.018;6.306;2024-03-25T11:04:08;8.93;;;1.90;;
18899;SDS011;9582;52.018;6.306;2024-03-25T11:06:34;6.60;;;2.00;;
18899;SDS011;9582;52.018;6.306;2024-03-25T11:09:00;7.85;;;2.45;;
18899;SDS011;9582;52.018;6.306;2024-03-25T11:11:30;10.13;;;2.60;;
18899;SDS011;9582;52.018;6.306;2024-03-25T11:13:58;6.63;;;2.40;;
18899;SDS011;9582;52.018;6.306;2024-03-25T11:16:28;7.88;;;2.13;;
18899;SDS011;9582;52.018;6.306;2024-03-25T11:18:55;9.43;;;3.00;;
18899;SDS011;9582;52.018;6.306;2024-03-25T11:21:27;9.37;;;2.50;;
18899;SDS011;9582;52.018;6.306;2024-03-25T11:23:53;11.10;;;2.70;;
18899;SDS011;9582;52.018;6.306;2024-03-25T11:26:19;8.67;;;2.63;;
18899;SDS011;9582;52.018;6.306;2024-03-25T11:28:45;8.75;;;2.25;;
18899;SDS011;9582;52.018;6.306;2024-03-25T11:31:12;6.27;;;2.00;;
18899;SDS011;9582;52.018;6.306;2024-03-25T11:33:38;8.47;;;3.23;;
18899;SDS011;9582;52.018;6.306;2024-03-25T11:36:04;8.97;;;2.50;;
18899;SDS011;9582;52.018;6.306;2024-03-25T11:38:30;9.52;;;2.70;;
18899;SDS011;9582;52.018;6.306;2024-03-25T11:40:56;9.80;;;2.37;;
18899;SDS011;9582;52.018;6.306;2024-03-25T11:43:23;7.22;;;2.60;;
18899;SDS011;9582;52.018;6.306;2024-03-25T11:45:49;7.97;;;2.28;;
18899;SDS011;9582;52.018;6.306;2024-03-25T11:48:16;10.50;;;2.47;;
18899;SDS011;9582;52.018;6.306;2024-03-25T11:50:44;6.25;;;2.17;;
18899;SDS011;9582;52.018;6.306;2024-03-25T11:53:16;10.13;;;2.55;;
18899;SDS011;9582;52.018;6.306;2024-03-25T11:55:45;8.68;;;2.40;;
18899;SDS011;9582;52.018;6.306;2024-03-25T11:58:11;9.30;;;2.38;;
18899;SDS011;9582;52.018;6.306;2024-03-25T12:00:42;7.35;;;2.40;;
18899;SDS011;9582;52.018;6.306;2024-03-25T12:03:08;5.47;;;2.50;;
18899;SDS011;9582;52.018;6.306;2024-03-25T12:05:40;7.25;;;2.45;;
18899;SDS011;9582;52.018;6.306;2024-03-25T12:08:08;8.20;;;2.30;;
18899;SDS011;9582;52.018;6.306;2024-03-25T12:10:34;6.63;;;2.28;;
18899;SDS011;9582;52.018;6.306;2024-03-25T12:13:18;6.00;;;2.00;;
18899;SDS011;9582;52.018;6.306;2024-03-25T12:15:44;6.20;;;2.03;;
18899;SDS011;9582;52.018;6.306;2024-03-25T12:18:10;6.90;;;2.05;;
18899;SDS011;9582;52.018;6.306;2024-03-25T12:20:40;7.20;;;1.70;;
18899;SDS011;9582;52.018;6.306;2024-03-25T12:23:06;5.80;;;1.73;;
18899;SDS011;9582;52.018;6.306;2024-03-25T12:25:32;7.45;;;1.92;;
18899;SDS011;9582;52.018;6.306;2024-03-25T12:27:58;5.18;;;1.85;;
18899;SDS011;9582;52.018;6.306;2024-03-25T12:30:24;3.50;;;1.92;;
18899;SDS011;9582;52.018;6.306;2024-03-25T12:32:50;6.18;;;2.42;;
18899;SDS011;9582;52.018;6.306;2024-03-25T12:35:16;5.72;;;1.83;;
18899;SDS011;9582;52.018;6.306;2024-03-25T12:37:46;8.50;;;2.15;;
18899;SDS011;9582;52.018;6.306;2024-03-25T12:40:13;5.30;;;1.80;;
18899;SDS011;9582;52.018;6.306;2024-03-25T12:42:51;5.85;;;2.55;;
18899;SDS011;9582;52.018;6.306;2024-03-25T12:45:17;7.93;;;2.45;;
18899;SDS011;9582;52.018;6.306;2024-03-25T12:47:43;7.38;;;1.80;;
18899;SDS011;9582;52.018;6.306;2024-03-25T12:50:09;7.15;;;2.08;;
18899;SDS011;9582;52.018;6.306;2024-03-25T12:52:34;5.85;;;2.00;;
18899;SDS011;9582;52.018;6.306;2024-03-25T12:55:02;6.90;;;2.08;;
18899;SDS011;9582;52.018;6.306;2024-03-25T12:57:27;6.25;;;2.25;;
18899;SDS011;9582;52.018;6.306;2024-03-25T12:59:53;7.00;;;2.00;;
18899;SDS011;9582;52.018;6.306;2024-03-25T13:02:19;8.00;;;2.72;;
18899;SDS011;9582;52.018;6.306;2024-03-25T13:04:44;6.85;;;2.25;;
18899;SDS011;9582;52.018;6.306;2024-03-25T13:07:10;7.97;;;2.13;;
18899;SDS011;9582;52.018;6.306;2024-03-25T13:09:36;7.18;;;2.03;;
18899;SDS011;9582;52.018;6.306;2024-03-25T13:12:03;7.43;;;2.13;;
18899;SDS011;9582;52.018;6.306;2024-03-25T13:14:29;7.47;;;2.28;;
18899;SDS011;9582;52.018;6.306;2024-03-25T13:16:55;8.73;;;2.97;;
18899;SDS011;9582;52.018;6.306;2024-03-25T13:19:21;6.68;;;2.40;;
18899;SDS011;9582;52.018;6.306;2024-03-25T13:21:47;5.90;;;2.45;;
18899;SDS011;9582;52.018;6.306;2024-03-25T13:24:13;9.32;;;2.70;;
18899;SDS011;9582;52.018;6.306;2024-03-25T13:26:39;7.18;;;2.30;;
18899;SDS011;9582;52.018;6.306;2024-03-25T13:29:06;10.93;;;2.45;;
18899;SDS011;9582;52.018;6.306;2024-03-25T13:31:32;7.18;;;2.72;;
18899;SDS011;9582;52.018;6.306;2024-03-25T13:33:58;10.13;;;2.85;;
18899;SDS011;9582;52.018;6.306;2024-03-25T13:36:23;6.13;;;2.50;;
18899;SDS011;9582;52.018;6.306;2024-03-25T13:38:49;7.97;;;2.42;;
18899;SDS011;9582;52.018;6.306;2024-03-25T13:41:15;5.60;;;2.28;;
18899;SDS011;9582;52.018;6.306;2024-03-25T13:43:42;6.95;;;2.33;;
18899;SDS011;9582;52.018;6.306;2024-03-25T13:46:09;8.23;;;2.38;;
18899;SDS011;9582;52.018;6.306;2024-03-25T13:48:35;5.20;;;2.28;;
18899;SDS011;9582;52.018;6.306;2024-03-25T13:51:00;7.57;;;2.70;;
18899;SDS011;9582;52.018;6.306;2024-03-25T13:53:26;7.07;;;2.30;;
18899;SDS011;9582;52.018;6.306;2024-03-25T13:55:52;7.00;;;2.47;;
18899;SDS011;9582;52.018;6.306;2024-03-25T13:58:17;8.57;;;2.60;;
18899;SDS011;9582;52.018;6.306;2024-03-25T14:00:43;7.20;;;2.20;;
18899;SDS011;9582;52.018;6.306;2024-03-25T14:03:10;6.13;;;2.28;;
18899;SDS011;9582;52.018;6.306;2024-03-25T14:05:36;4.75;;;2.10;;
18899;SDS011;9582;52.018;6.306;2024-03-25T14:08:02;8.65;;;2.10;;
18899;SDS011;9582;52.018;6.306;2024-03-25T14:10:28;5.45;;;2.35;;
18899;SDS011;9582;52.018;6.306;2024-03-25T14:12:53;5.07;;;1.90;;
18899;SDS011;9582;52.018;6.306;2024-03-25T14:15:19;6.65;;;2.53;;
18899;SDS011;9582;52.018;6.306;2024-03-25T14:17:45;4.85;;;1.98;;
18899;SDS011;9582;52.018;6.306;2024-03-25T14:20:12;10.02;;;2.17;;
18899;SDS011;9582;52.018;6.306;2024-03-25T14:22:38;6.07;;;2.15;;
18899;SDS011;9582;52.018;6.306;2024-03-25T14:25:04;5.90;;;2.43;;
18899;SDS011;9582;52.018;6.306;2024-03-25T14:27:30;7.65;;;1.98;;
18899;SDS011;9582;52.018;6.306;2024-03-25T14:29:56;7.28;;;2.60;;
18899;SDS011;9582;52.018;6.306;2024-03-25T14:32:22;4.43;;;2.00;;
18899;SDS011;9582;52.018;6.306;2024-03-25T14:34:48;8.55;;;2.30;;
18899;SDS011;9582;52.018;6.306;2024-03-25T14:37:15;6.05;;;2.08;;
18899;SDS011;9582;52.018;6.306;2024-03-25T14:39:41;5.53;;;2.08;;
18899;SDS011;9582;52.018;6.306;2024-03-25T14:42:07;4.70;;;2.25;;
18899;SDS011;9582;52.018;6.306;2024-03-25T14:44:34;5.88;;;1.85;;
18899;SDS011;9582;52.018;6.306;2024-03-25T14:47:00;5.45;;;1.80;;
18899;SDS011;9582;52.018;6.306;2024-03-25T14:49:26;4.00;;;1.75;;